KFRG/FRG METAR and TAF weather

Enter ICAO airport designator
Station Type Date Time Source
KFRG METAR 2020/09/22 06:53 UTC NOAA

KFRG 220653Z AUTO 02003KT 10SM CLR 09/04 A3029 RMK AO2 SLP256 T00890044


Station Type Date Time Source
KFRG Decoded METAR 2020/09/22 06:53 UTC NOAA

FARMINGDALE REPUBLIC AIRPORT , NY, United States (KFRG) 40-44N 073-25W 21M
Sep 22, 2020 - 02:53 AM EDT / 2020.09.22 0653 UTC
Wind: from the NNE (020 degrees) at 3 MPH (3 KT):0
Visibility: 10 mile(s):0
Sky conditions: clear
Temperature: 48.0 F (8.9 C)
Dew Point: 39.9 F (4.4 C)
Relative Humidity: 73%
Pressure (altimeter): 30.29 in. Hg (1025 hPa)
ob: KFRG 220653Z AUTO 02003KT 10SM CLR 09/04 A3029 RMK AO2 SLP256 T00890044
cycle: 7

Station Type Date Time Source
KFRG TAF UTC NOAA

Error!

Example: see airport list